Dades meteomassalio
 
Diari Summary for Abril 21, 2019 Units:  Metric    English   Both
« Previous Day
Next Day »
Diari Semanal Mensual Anual Personalitzat
  Actual: Maxima: Minima: Mijana:
Temperatura: -13.2 °C -17.8 °C -13.2 °C -13.1 °C
Rosada: -13.9 °C -17.8 °C -13.9 °C -13.8 °C
Humitat: 91 % Humidity % 90 % 88 %
Velocitat del vent: 9 km/h 0 km/h 0 km/h 8.7 km/h
Racha vent: 4.2 km/h 0 km/h - -
Vent:NE - - NE
Pressio: 34530.4 hPa 0 hPa 34530.4 hPa -
Pluja: 71.12 mm      
Historical Graphs
 
 
Tabular Data for Abril 21, 2019
Time Temperature Dew Point Pressure Wind Wind Speed Wind Gust Humidity Rainfall Rate (Hourly) solar Conditions
-17.8 °C -17.8 °C 0 hPa Calm     Humidity % 0 mm SolarRadiationWatts/m^2 W/m2 Conditions
00:04 -12.8 °C -13.7 °C 34608.3 hPa Calm     90 % 38.1 mm 0.00 W/m2 RA
00:09 -12.8 °C -13.7 °C 34611.7 hPa Calm     90 % 38.1 mm 0.00 W/m2 RA
00:14 -12.8 °C -13.7 °C 34608.3 hPa Calm     90 % 38.1 mm 0.00 W/m2 RA
00:19 -12.8 °C -13.7 °C 34608.3 hPa Calm     90 % 33.02 mm 0.00 W/m2
00:24 -12.8 °C -13.7 °C 34608.3 hPa Calm     90 % 33.02 mm 0.00 W/m2 RA
00:29 -12.8 °C -13.7 °C 34604.9 hPa NE 17.9 km/h 9.8 km/h 90 % 33.02 mm 0.00 W/m2
00:34 -12.8 °C -13.7 °C 34601.5 hPa NE 12.9 km/h 9.3 km/h 90 % 33.02 mm 0.00 W/m2 RA
00:39 -12.8 °C -13.7 °C 34601.5 hPa NE 20.9 km/h 12.4 km/h 90 % 33.02 mm 0.00 W/m2
00:44 -12.8 °C -13.7 °C 34598.1 hPa NE 12.9 km/h 9.3 km/h 90 % 33.02 mm 0.00 W/m2 RA
00:49 -12.8 °C -13.7 °C 34598.1 hPa NE 12.9 km/h 11.6 km/h 90 % 33.02 mm 0.00 W/m2
00:54 -12.8 °C -13.6 °C 34594.8 hPa NE 15 km/h 3.1 km/h 91 % 33.02 mm 0.00 W/m2 RA
00:59 -12.8 °C -13.6 °C 34588 hPa ENE 20.8 km/h 9.8 km/h 91 % 38.1 mm 0.00 W/m2 RA
01:04 -12.8 °C -13.7 °C 34588 hPa NE 17.9 km/h 10.1 km/h 90 % 38.1 mm 0.00 W/m2 CLR
01:09 -12.8 °C -13.6 °C 34588 hPa ENE 17.9 km/h 10.6 km/h 91 % 38.1 mm 0.00 W/m2 RA
01:14 -12.8 °C -13.6 °C 34588 hPa ENE 9 km/h   91 % 33.02 mm 0.00 W/m2 CLR
01:19 -12.8 °C -13.6 °C 34588 hPa Calm     91 % 33.02 mm 0.00 W/m2 CLR
01:24 -12.8 °C -13.6 °C 34584.6 hPa NE 15 km/h 3.4 km/h 91 % 33.02 mm 0.00 W/m2 RA
01:29 -12.8 °C -13.6 °C 34588 hPa Calm     91 % 33.02 mm 0.00 W/m2 CLR
01:34 -12.8 °C -13.6 °C 34581.2 hPa Calm     91 % 25.4 mm 0.00 W/m2 CLR
01:39 -12.8 °C -13.6 °C 34577.8 hPa Calm     91 % 25.4 mm 0.00 W/m2 CLR
01:44 -12.8 °C -13.6 °C 34574.4 hPa Calm     91 % 20.32 mm 0.00 W/m2 CLR
01:49 -13.2 °C -13.9 °C 34574.4 hPa Calm     91 % 20.32 mm 0.00 W/m2 CLR
01:54 -12.8 °C -13.6 °C 34571.1 hPa Calm     91 % 12.7 mm 0.00 W/m2 CLR
01:59 -12.8 °C -13.6 °C 34567.7 hPa Calm     91 % 12.7 mm 0.00 W/m2 RA
02:04 -12.8 °C -13.6 °C 34564.3 hPa Calm     91 % 12.7 mm 0.00 W/m2 CLR
02:09 -12.8 °C -13.6 °C 34560.9 hPa NE 17.9 km/h 8.2 km/h 91 % 12.7 mm 0.00 W/m2 RA
02:14 -12.8 °C -13.6 °C 34560.9 hPa NNE 18.2 km/h 10.1 km/h 91 % 12.7 mm 0.00 W/m2 CLR
02:19 -12.8 °C -13.6 °C 34557.5 hPa NNE 17.9 km/h 8 km/h 91 % 20.32 mm 0.00 W/m2 RA
02:24 -12.8 °C -13.6 °C 34554.1 hPa ENE 20.9 km/h 17.9 km/h 91 % 12.7 mm 0.00 W/m2 CLR
02:29 -13.2 °C -13.9 °C 34547.4 hPa NNE 18.2 km/h 12.2 km/h 91 % 12.7 mm 0.00 W/m2 CLR
02:34 -13.2 °C -13.9 °C 34547.4 hPa NE 20.9 km/h 10.6 km/h 91 % 12.7 mm 0.00 W/m2 CLR
02:39 -13.2 °C -13.9 °C 34544 hPa ENE 11.9 km/h 6.8 km/h 91 % 12.7 mm 0.00 W/m2 CLR
02:44 -13.2 °C -13.9 °C 34540.6 hPa ENE 9 km/h 6.4 km/h 91 % 20.32 mm 0.00 W/m2 RA
02:49 -13.2 °C -13.9 °C 34537.2 hPa NE 2.6 km/h 3.9 km/h 91 % 20.32 mm 0.00 W/m2 CLR
02:54 -13.2 °C -13.9 °C 34533.8 hPa NE 9 km/h 1 km/h 91 % 20.32 mm 0.00 W/m2 CLR
02:59 -13.2 °C -13.9 °C 34533.8 hPa ENE 7.7 km/h 0.5 km/h 91 % 20.32 mm 0.00 W/m2 RA
03:04 -13.2 °C -13.9 °C 34530.4 hPa Calm     91 % 20.32 mm 0.00 W/m2
03:08 -13.2 °C -13.9 °C 34530.4 hPa NE 9 km/h 4.2 km/h 91 % 12.7 mm 0.00 W/m2 CLR
Lo Temps de Massalio
Compliments of Weather Underground - 512 kb